Time;durP1;ratioP1;P1;durP2;ratioP2;P2;SDS_P1;SDS_P2;PMS_P1;PMS_P2;Temp;Humidity;BMP_temperature;BMP_pressure;BME280_temperature;BME280_humidity;BME280_pressure;Samples;Min_cycle;Max_cycle;Signal;HPM_P1;HPM_P2
2021/05/23 00:00:29;;;;;;;4.37;1.90;;;;;;;21.45;47.51;101526.28;144992;599;6002;-75
2021/05/23 00:03:01;;;;;;;3.85;2.17;;;;;;;21.46;47.47;101522.75;144993;570;6002;-75
2021/05/23 00:05:29;;;;;;;3.25;2.30;;;;;;;21.45;46.95;101516.59;144993;588;6002;-74
2021/05/23 00:08:03;;;;;;;3.17;2.10;;;;;;;21.45;46.89;101502.53;144993;577;6002;-74
2021/05/23 00:10:31;;;;;;;5.45;2.47;;;;;;;21.44;47.42;101504.25;144993;608;6002;-74
2021/05/23 00:13:00;;;;;;;4.20;2.33;;;;;;;21.37;47.44;101498.13;144993;577;6002;-75
2021/05/23 00:15:38;;;;;;;3.33;2.00;;;;;;;21.23;47.17;101505.19;144993;566;6002;-75
2021/05/23 00:18:07;;;;;;;5.87;2.25;;;;;;;21.09;48.17;101499.94;144993;647;6002;-73
2021/05/23 00:20:35;;;;;;;3.90;2.00;;;;;;;20.96;47.68;101490.28;144993;636;6003;-74
2021/05/23 00:23:02;;;;;;;4.20;1.75;;;;;;;20.83;46.02;101490.28;144993;643;6002;-73
2021/05/23 00:25:28;;;;;;;3.17;1.60;;;;;;;20.88;47.72;101489.41;144993;617;6002;-74
2021/05/23 00:27:57;;;;;;;1.90;1.50;;;;;;;20.89;47.50;101491.19;144993;576;6002;-74
2021/05/23 00:30:24;;;;;;;4.07;1.33;;;;;;;20.83;47.54;101486.78;144993;611;6002;-74
2021/05/23 00:32:50;;;;;;;2.50;1.70;;;;;;;20.88;47.71;101487.66;144993;596;6002;-74
2021/05/23 00:35:18;;;;;;;3.37;1.67;;;;;;;20.86;46.70;101488.56;144993;614;6002;-74
2021/05/23 00:37:45;;;;;;;2.20;1.58;;;;;;;20.76;47.22;101488.56;144993;578;6002;-74
2021/05/23 00:40:12;;;;;;;4.20;1.70;;;;;;;20.74;47.37;101497.31;144992;592;6002;-74
2021/05/23 00:42:39;;;;;;;2.10;1.55;;;;;;;20.78;47.13;101488.56;144993;609;6002;-74
2021/05/23 00:45:08;;;;;;;4.22;1.60;;;;;;;20.84;47.06;101493.81;144993;566;6002;-74
2021/05/23 00:47:35;;;;;;;3.67;1.70;;;;;;;20.88;46.48;101500.84;144993;565;6002;-74
2021/05/23 00:50:04;;;;;;;3.30;1.58;;;;;;;20.94;46.27;101502.62;144993;588;6002;-74
2021/05/23 00:52:30;;;;;;;3.03;1.77;;;;;;;20.97;46.08;101499.97;144993;573;6002;-74
2021/05/23 00:54:56;;;;;;;4.07;1.95;;;;;;;21.01;45.91;101501.72;144993;575;6002;-74
2021/05/23 00:57:23;;;;;;;3.70;1.75;;;;;;;21.00;46.38;101500.84;144993;564;6002;-75
2021/05/23 00:59:49;;;;;;;3.40;1.83;;;;;;;21.02;45.87;101501.72;144994;581;5002;-74
2021/05/23 01:02:46;;;;;;;3.10;1.87;;;;;;;21.03;46.55;101502.59;144994;589;5002;-74
2021/05/23 01:05:19;;;;;;;3.50;1.77;;;;;;;21.02;45.85;101507.00;144994;596;5004;-74
2021/05/23 01:07:46;;;;;;;1.83;1.62;;;;;;;21.01;46.03;101505.25;144994;583;5004;-74
2021/05/23 01:10:24;;;;;;;4.12;1.98;;;;;;;21.03;45.80;101507.87;144994;571;5004;-74
2021/05/23 01:13:30;;;;;;;2.40;1.80;;;;;;;21.03;46.28;101499.97;144994;629;5005;-73
2021/05/23 01:15:57;;;;;;;2.60;1.70;;;;;;;21.02;45.93;101496.44;144994;583;5004;-73
2021/05/23 01:18:36;;;;;;;3.72;2.00;;;;;;;21.01;45.76;101493.78;144994;586;5004;-74
2021/05/23 01:21:06;;;;;;;3.25;1.83;;;;;;;21.02;45.95;101495.56;144994;665;5004;-74
2021/05/23 01:23:40;;;;;;;1.75;1.65;;;;;;;21.02;45.95;101495.56;144994;563;5004;-73
2021/05/23 01:26:11;;;;;;;2.37;1.80;;;;;;;21.05;45.68;101497.34;144994;567;5004;-74
2021/05/23 01:29:08;;;;;;;4.97;2.03;;;;;;;21.00;46.07;101497.34;144994;609;5004;-73
2021/05/23 01:31:35;;;;;;;;;;;;;;;21.01;46.23;101494.69;144998;911;5002;-74
2021/05/23 01:34:03;;;;;;;4.70;2.62;;;;;;;20.99;46.23;101496.44;144998;565;5002;-73
2021/05/23 01:36:33;;;;;;;6.95;2.60;;;;;;;21.01;46.19;101496.44;144994;666;5002;-73
2021/05/23 01:39:01;;;;;;;6.37;2.70;;;;;;;21.00;46.61;101492.06;144993;576;5002;-74
2021/05/23 01:41:30;;;;;;;5.65;2.28;;;;;;;20.98;46.23;101488.50;144994;626;5002;-74
2021/05/23 01:43:57;;;;;;;6.70;2.67;;;;;;;20.92;46.62;101489.41;144994;594;5002;-74
2021/05/23 01:46:24;;;;;;;5.65;2.50;;;;;;;20.91;46.57;101481.50;144994;592;5002;-73
2021/05/23 01:48:51;;;;;;;3.87;2.05;;;;;;;20.90;46.65;101485.00;144994;591;5002;-73
2021/05/23 01:51:18;;;;;;;5.15;2.15;;;;;;;20.88;46.89;101485.00;144994;595;5002;-73
2021/05/23 01:53:44;;;;;;;3.35;2.00;;;;;;;20.85;46.92;101482.38;144994;564;5002;-73
2021/05/23 01:56:11;;;;;;;7.87;2.60;;;;;;;20.83;46.96;101489.41;144994;617;5002;-73
2021/05/23 01:58:38;;;;;;;5.12;2.25;;;;;;;20.82;46.94;101487.66;144994;607;5002;-73
2021/05/23 02:01:05;;;;;;;5.25;2.30;;;;;;;20.72;47.19;101491.19;144994;575;5002;-73
2021/05/23 02:03:32;;;;;;;2.83;2.17;;;;;;;20.60;47.72;101492.91;144994;602;5002;-74
2021/05/23 02:06:02;;;;;;;3.55;2.42;;;;;;;20.58;47.48;101484.09;144993;581;5002;-73
2021/05/23 02:08:29;;;;;;;5.40;2.42;;;;;;;20.52;48.29;101499.94;144994;607;5002;-73
2021/05/23 02:11:04;;;;;;;5.97;2.70;;;;;;;20.40;47.80;101489.38;144994;599;5002;-73
2021/05/23 02:13:30;;;;;;;6.28;2.50;;;;;;;20.43;47.76;101494.66;144994;581;5002;-73
2021/05/23 02:15:56;;;;;;;3.53;2.10;;;;;;;20.22;47.26;101487.56;144994;595;5002;-73
2021/05/23 02:18:23;;;;;;;3.58;2.30;;;;;;;20.14;48.20;101495.47;144994;599;5002;-73
2021/05/23 02:20:50;;;;;;;4.37;2.67;;;;;;;19.81;47.49;101493.63;144994;677;5002;-73
2021/05/23 02:23:19;;;;;;;7.57;2.97;;;;;;;19.82;48.35;101496.25;144994;645;5002;-74
2021/05/23 02:25:46;;;;;;;8.13;3.40;;;;;;;19.84;47.77;101483.97;144994;579;5002;-74
2021/05/23 02:28:15;;;;;;;4.47;3.10;;;;;;;19.91;47.83;101492.75;144994;642;5002;-73
2021/05/23 02:30:44;;;;;;;7.35;2.60;;;;;;;19.99;47.71;101490.16;144994;591;5002;-75
2021/05/23 02:33:13;;;;;;;7.35;3.25;;;;;;;19.96;47.63;101498.91;144994;612;5002;-75
2021/05/23 02:35:44;;;;;;;5.70;3.28;;;;;;;19.96;47.55;101496.28;144994;583;5002;-75
2021/05/23 02:38:12;;;;;;;6.60;2.85;;;;;;;19.97;47.86;101505.09;144994;596;5002;-73
2021/05/23 02:40:40;;;;;;;5.68;3.10;;;;;;;20.04;47.20;101506.84;144994;569;5002;-75
2021/05/23 02:43:08;;;;;;;5.75;3.12;;;;;;;20.06;47.12;101515.63;144994;603;5002;-76
2021/05/23 02:45:35;;;;;;;6.85;3.37;;;;;;;20.08;47.58;101511.28;144994;581;5002;-74
2021/05/23 02:48:03;;;;;;;7.25;3.67;;;;;;;20.11;47.29;101522.69;144994;587;5002;-75
2021/05/23 02:50:31;;;;;;;5.43;3.25;;;;;;;20.16;47.03;101525.34;144994;620;5002;-74
2021/05/23 02:52:58;;;;;;;6.82;3.53;;;;;;;20.17;47.15;101528.84;144994;637;5002;-74
2021/05/23 02:55:25;;;;;;;7.28;3.17;;;;;;;20.11;47.58;101532.37;144994;607;5002;-74
2021/05/23 02:57:52;;;;;;;5.18;2.90;;;;;;;20.09;47.21;101528.81;144994;579;5002;-73
2021/05/23 03:00:21;;;;;;;6.07;3.12;;;;;;;20.01;47.62;101527.91;144994;575;5002;-74
2021/05/23 03:02:49;;;;;;;4.03;2.50;;;;;;;19.90;47.58;101530.50;144994;605;5002;-74
2021/05/23 03:05:17;;;;;;;5.53;2.53;;;;;;;19.93;47.66;101530.53;144994;615;5002;-74
2021/05/23 03:07:46;;;;;;;4.53;2.20;;;;;;;19.89;47.70;101539.31;144994;657;5002;-74
2021/05/23 03:10:16;;;;;;;5.32;2.30;;;;;;;19.92;47.60;101537.56;144994;572;5002;-74
2021/05/23 03:12:43;;;;;;;3.72;1.75;;;;;;;19.83;47.85;101532.25;144994;587;5002;-74
2021/05/23 03:15:13;;;;;;;5.15;2.05;;;;;;;19.90;47.48;101530.50;144994;602;5002;-74
2021/05/23 03:17:40;;;;;;;4.03;1.85;;;;;;;19.96;47.45;101533.16;144994;687;5002;-74
2021/05/23 03:20:09;;;;;;;4.72;1.80;;;;;;;20.01;47.20;101539.38;144994;608;5002;-74
2021/05/23 03:22:36;;;;;;;6.45;1.90;;;;;;;20.05;47.24;101537.63;144994;587;5002;-74
2021/05/23 03:25:07;;;;;;;4.03;1.87;;;;;;;20.10;47.33;101542.00;144994;600;5002;-74
2021/05/23 03:27:34;;;;;;;4.10;1.80;;;;;;;20.08;47.41;101548.16;144994;600;5002;-74
2021/05/23 03:30:00;;;;;;;3.62;1.80;;;;;;;20.12;47.10;101548.19;144994;581;5012;-73
2021/05/23 03:32:30;;;;;;;6.15;2.00;;;;;;;20.13;47.36;101556.97;144994;622;5002;-74
2021/05/23 03:34:56;;;;;;;3.05;1.92;;;;;;;20.11;47.33;101569.28;144994;659;5003;-74
2021/05/23 03:37:22;;;;;;;4.05;1.67;;;;;;;20.12;47.44;101565.72;144994;576;5002;-74
2021/05/23 03:39:49;;;;;;;3.75;1.83;;;;;;;20.16;47.24;101570.16;144994;610;5002;-74
2021/05/23 03:42:15;;;;;;;2.00;1.60;;;;;;;20.20;47.12;101573.69;144994;561;5002;-74
2021/05/23 03:44:42;;;;;;;3.22;1.70;;;;;;;20.23;47.04;101576.31;144994;571;5002;-73
2021/05/23 03:47:08;;;;;;;3.05;1.80;;;;;;;20.26;47.27;101579.84;144994;581;5002;-73
2021/05/23 03:49:38;;;;;;;4.05;1.80;;;;;;;20.28;47.10;101578.12;144994;637;5002;-74
2021/05/23 03:52:08;;;;;;;4.60;1.80;;;;;;;20.24;47.12;101578.97;144994;626;5002;-74
2021/05/23 03:54:35;;;;;;;2.97;1.50;;;;;;;20.22;47.03;101575.47;144994;565;5002;-75
2021/05/23 03:57:02;;;;;;;3.87;1.80;;;;;;;20.23;47.32;101576.31;144994;586;5002;-74
2021/05/23 03:59:29;;;;;;;3.87;1.60;;;;;;;20.25;47.16;101579.84;144994;650;5002;-75
2021/05/23 04:01:55;;;;;;;6.12;1.60;;;;;;;20.28;47.07;101580.75;144994;569;5002;-74
2021/05/23 04:04:22;;;;;;;3.35;1.77;;;;;;;20.31;46.63;101582.50;144994;552;5002;-73
2021/05/23 04:06:49;;;;;;;2.87;1.50;;;;;;;20.37;47.06;101576.37;144994;565;5002;-73
2021/05/23 04:09:19;;;;;;;3.60;1.45;;;;;;;20.29;47.25;101574.59;144994;591;5002;-74
2021/05/23 04:11:51;;;;;;;5.60;1.50;;;;;;;20.24;47.25;101572.81;144994;695;5002;-73
2021/05/23 04:14:17;;;;;;;1.90;1.55;;;;;;;20.22;47.66;101583.38;144994;617;5002;-75
2021/05/23 04:16:44;;;;;;;3.20;1.52;;;;;;;20.23;47.59;101585.09;144994;607;5002;-73
2021/05/23 04:19:10;;;;;;;4.30;1.37;;;;;;;20.17;47.76;101589.47;144994;586;5003;-74
2021/05/23 04:21:37;;;;;;;4.00;1.40;;;;;;;20.14;47.80;101589.47;144994;579;5002;-74
2021/05/23 04:24:04;;;;;;;3.97;1.30;;;;;;;20.17;47.56;101592.13;144994;569;5002;-74
2021/05/23 04:26:31;;;;;;;5.68;1.50;;;;;;;20.17;47.56;101592.13;144994;596;5002;-74
2021/05/23 04:28:57;;;;;;;2.30;1.30;;;;;;;20.27;47.57;101596.56;144994;611;5002;-74
2021/05/23 04:31:24;;;;;;;4.55;1.50;;;;;;;20.33;47.64;101593.94;144994;588;5002;-74
2021/05/23 04:33:50;;;;;;;3.17;1.50;;;;;;;20.41;47.59;101596.59;144994;591;5002;-75
2021/05/23 04:36:17;;;;;;;5.03;1.73;;;;;;;20.48;46.90;101598.38;144994;607;5002;-74
2021/05/23 04:38:43;;;;;;;4.30;1.48;;;;;;;20.54;47.11;101598.41;144994;654;5002;-75
2021/05/23 04:41:13;;;;;;;4.95;1.40;;;;;;;20.66;46.86;101597.56;144994;582;5002;-74
2021/05/23 04:43:40;;;;;;;5.43;1.65;;;;;;;20.77;46.69;101595.81;144994;623;5002;-74
2021/05/23 04:46:08;;;;;;;4.95;1.70;;;;;;;20.77;47.04;101601.09;144994;595;5002;-73
2021/05/23 04:48:34;;;;;;;3.50;1.60;;;;;;;20.82;46.52;101614.31;144994;651;5002;-74
2021/05/23 04:51:01;;;;;;;6.65;1.90;;;;;;;20.87;46.75;101607.28;144994;576;5002;-73
2021/05/23 04:53:27;;;;;;;4.65;1.70;;;;;;;20.93;47.12;101607.28;144994;607;5002;-73
2021/05/23 04:55:54;;;;;;;3.55;1.80;;;;;;;20.97;47.04;101613.47;144994;623;5002;-73
2021/05/23 04:58:20;;;;;;;3.65;1.70;;;;;;;21.04;46.40;101617.84;144994;587;5002;-73
2021/05/23 05:00:46;;;;;;;8.05;1.80;;;;;;;21.10;47.08;101615.22;144994;594;5002;-73
2021/05/23 05:03:13;;;;;;;2.83;1.98;;;;;;;20.88;46.38;101616.09;144994;572;5003;-73
2021/05/23 05:05:39;;;;;;;5.68;2.03;;;;;;;20.72;47.68;101628.38;144994;588;5002;-73
2021/05/23 05:08:09;;;;;;;4.55;2.10;;;;;;;20.73;47.24;101624.84;144994;571;5002;-73
2021/05/23 05:10:35;;;;;;;4.50;2.30;;;;;;;20.83;47.09;101631.91;144994;574;5002;-74
2021/05/23 05:13:02;;;;;;;4.10;2.00;;;;;;;20.96;47.54;101628.41;144994;575;5002;-74
2021/05/23 05:15:28;;;;;;;9.05;2.30;;;;;;;21.09;46.89;101628.41;144994;577;5002;-73
2021/05/23 05:17:55;;;;;;;4.57;2.33;;;;;;;21.22;47.29;101635.47;144994;573;5002;-74
2021/05/23 05:20:21;;;;;;;5.05;2.37;;;;;;;21.34;46.65;101643.37;144994;579;5002;-75
2021/05/23 05:22:48;;;;;;;6.00;2.15;;;;;;;21.42;47.03;101635.44;144994;657;5002;-73
2021/05/23 05:25:14;;;;;;;5.03;2.55;;;;;;;21.44;46.17;101641.59;144994;607;5002;-73
2021/05/23 05:27:41;;;;;;;6.22;2.75;;;;;;;21.24;45.84;101638.09;144994;578;5002;-74
2021/05/23 05:30:08;;;;;;;7.60;2.90;;;;;;;21.24;46.08;101640.72;144994;587;4566;-74
2021/05/23 05:32:35;;;;;;;5.03;2.83;;;;;;;21.01;46.11;101645.16;144994;610;4572;-74
2021/05/23 05:35:01;;;;;;;8.52;3.22;;;;;;;20.86;47.29;101642.47;144994;612;4572;-73
2021/05/23 05:37:27;;;;;;;10.30;4.28;;;;;;;20.88;47.76;101648.62;144993;589;6002;-74
2021/05/23 05:39:54;;;;;;;6.80;3.90;;;;;;;21.08;47.06;101651.31;144992;565;6002;-75
2021/05/23 05:42:20;;;;;;;8.30;4.12;;;;;;;21.11;46.92;101648.66;144992;595;6002;-75
2021/05/23 05:44:47;;;;;;;11.10;4.60;;;;;;;21.32;47.27;101654.84;144992;576;6002;-74
2021/05/23 05:47:13;;;;;;;8.40;4.65;;;;;;;21.47;47.20;101661.88;144992;578;6002;-73
2021/05/23 05:49:40;;;;;;;9.80;4.10;;;;;;;21.35;45.97;101662.75;144992;569;6002;-73
2021/05/23 05:52:06;;;;;;;11.40;4.55;;;;;;;21.54;46.82;101661.03;144992;585;6002;-73
2021/05/23 05:54:34;;;;;;;8.63;4.57;;;;;;;21.71;46.43;101663.63;144992;644;6002;-73
2021/05/23 05:57:00;;;;;;;9.55;4.10;;;;;;;21.82;46.24;101672.41;144992;564;6002;-74
2021/05/23 05:59:27;;;;;;;10.55;4.15;;;;;;;21.77;45.76;101660.13;144992;618;6002;-75
2021/05/23 06:01:53;;;;;;;7.37;4.32;;;;;;;21.80;45.88;101668.03;144992;584;6002;-75
2021/05/23 06:04:20;;;;;;;8.88;4.00;;;;;;;21.91;46.45;101668.91;144992;598;6002;-76
2021/05/23 06:06:46;;;;;;;9.30;4.10;;;;;;;21.99;45.58;101671.53;144992;668;6002;-74
2021/05/23 06:09:15;;;;;;;10.77;4.32;;;;;;;21.85;46.97;101676.84;144992;604;6002;-74
2021/05/23 06:11:42;;;;;;;8.65;4.68;;;;;;;21.99;46.55;101687.37;144992;606;6002;-75
2021/05/23 06:14:08;;;;;;;12.65;4.35;;;;;;;22.15;45.99;101680.28;144992;641;6002;-76
2021/05/23 06:16:36;;;;;;;8.82;4.28;;;;;;;22.16;46.12;101676.75;144992;581;6002;-74
2021/05/23 06:19:03;;;;;;;9.15;4.50;;;;;;;21.95;46.56;101680.34;144992;565;6002;-75
2021/05/23 06:21:30;;;;;;;6.20;3.83;;;;;;;22.14;46.62;101678.53;144992;623;6002;-75
2021/05/23 06:23:56;;;;;;;8.60;4.35;;;;;;;22.17;46.35;101682.03;144992;563;6002;-75
2021/05/23 06:26:27;;;;;;;6.62;4.18;;;;;;;22.21;46.28;101673.22;144992;647;6002;-73
2021/05/23 06:28:54;;;;;;;8.52;3.47;;;;;;;22.33;45.95;101679.38;144991;629;6002;-75
2021/05/23 06:31:23;;;;;;;9.68;3.85;;;;;;;22.35;46.36;101670.56;144992;611;6002;-73
2021/05/23 06:33:50;;;;;;;7.45;4.00;;;;;;;22.29;46.01;101675.84;144992;579;6002;-74
2021/05/23 06:36:17;;;;;;;6.55;3.53;;;;;;;22.33;46.35;101667.03;144992;655;6002;-74
2021/05/23 06:38:44;;;;;;;7.12;3.50;;;;;;;22.39;45.99;101666.12;144992;647;6002;-74
2021/05/23 06:41:12;;;;;;;5.87;3.47;;;;;;;22.32;46.34;101656.44;144992;566;6002;-73
2021/05/23 06:43:39;;;;;;;6.25;3.53;;;;;;;22.27;46.64;101661.72;144992;624;6002;-73
2021/05/23 06:46:07;;;;;;;7.12;3.83;;;;;;;22.25;47.83;101659.06;144992;686;6002;-73
2021/05/23 06:48:34;;;;;;;6.37;3.90;;;;;;;22.33;48.30;101653.78;144991;607;6002;-74
2021/05/23 06:51:01;;;;;;;9.02;4.25;;;;;;;22.05;49.81;101659.16;144992;629;6002;-74
2021/05/23 06:53:27;;;;;;;8.35;4.03;;;;;;;21.98;49.66;101662.69;144992;563;6002;-74
2021/05/23 06:55:54;;;;;;;6.60;3.97;;;;;;;21.78;49.80;101665.41;144991;616;6002;-73
2021/05/23 06:58:20;;;;;;;9.30;4.53;;;;;;;21.85;49.84;101667.13;144992;625;6002;-74
2021/05/23 07:00:47;;;;;;;14.63;4.37;;;;;;;21.89;49.19;101673.31;144992;648;6002;-74
2021/05/23 07:03:13;;;;;;;7.95;4.35;;;;;;;22.05;49.06;101666.22;144992;565;6002;-74
2021/05/23 07:05:42;;;;;;;9.15;4.22;;;;;;;22.00;49.39;101663.59;144992;573;6002;-75
2021/05/23 07:08:09;;;;;;;8.20;5.00;;;;;;;22.02;49.24;101669.75;144992;661;6002;-75
2021/05/23 07:10:36;;;;;;;8.63;4.30;;;;;;;22.00;49.77;101674.16;144992;570;6002;-76
2021/05/23 07:13:12;;;;;;;6.03;3.70;;;;;;;22.04;49.92;101669.75;144992;599;6002;-72
2021/05/23 07:15:47;;;;;;;9.18;4.40;;;;;;;22.11;50.74;101674.13;144992;573;6002;-74
2021/05/23 07:18:24;;;;;;;7.05;4.05;;;;;;;22.39;49.97;101671.41;144992;582;6002;-75
2021/05/23 07:20:59;;;;;;;7.07;3.72;;;;;;;22.49;50.28;101666.97;144992;567;6002;-74
2021/05/23 07:23:30;;;;;;;7.22;4.15;;;;;;;22.52;50.07;101667.81;144992;600;6002;-73
2021/05/23 07:25:57;;;;;;;6.00;3.60;;;;;;;22.49;50.45;101667.84;144992;634;6002;-74
2021/05/23 07:28:25;;;;;;;5.65;3.60;;;;;;;22.81;49.14;101659.75;144992;613;6002;-75
2021/05/23 07:30:55;;;;;;;8.75;3.75;;;;;;;22.72;49.93;101651.84;144992;652;6002;-73
2021/05/23 07:33:24;;;;;;;7.30;3.60;;;;;;;22.94;49.63;101652.59;144992;666;6002;-75
2021/05/23 07:35:52;;;;;;;15.48;3.50;;;;;;;22.75;49.83;101653.63;144992;600;6002;-76
2021/05/23 07:38:20;;;;;;;10.52;4.45;;;;;;;22.73;49.67;101652.72;144992;630;6002;-75
2021/05/23 07:40:47;;;;;;;6.47;3.53;;;;;;;22.76;50.84;101650.06;144992;659;6002;-75
2021/05/23 07:43:14;;;;;;;6.82;3.37;;;;;;;22.83;50.90;101651.78;144992;572;6002;-73
2021/05/23 07:45:41;;;;;;;6.90;3.30;;;;;;;22.76;50.84;101650.94;144992;598;6002;-75
2021/05/23 07:48:08;;;;;;;5.15;3.05;;;;;;;22.81;50.04;101653.53;144992;642;6002;-75
2021/05/23 07:50:35;;;;;;;5.80;2.90;;;;;;;22.52;53.11;101648.44;144992;604;6002;-75
2021/05/23 07:53:02;;;;;;;8.45;3.10;;;;;;;22.56;53.31;101650.19;144992;585;6002;-77
2021/05/23 07:55:40;;;;;;;6.03;3.17;;;;;;;22.52;53.63;101659.00;144992;616;6002;-75
2021/05/23 07:58:07;;;;;;;8.68;3.60;;;;;;;22.45;54.95;101656.41;144992;579;6002;-74
2021/05/23 08:00:34;;;;;;;8.18;3.30;;;;;;;22.24;56.34;101654.69;144992;603;6002;-73
2021/05/23 08:03:00;;;;;;;13.77;3.72;;;;;;;22.39;55.38;101648.47;144992;603;6002;-75
2021/05/23 08:05:28;;;;;;;3.80;2.62;;;;;;;22.27;56.31;101654.69;144992;639;6002;-75
2021/05/23 08:07:55;;;;;;;4.20;2.87;;;;;;;22.31;56.28;101647.66;144992;594;6002;-74
2021/05/23 08:10:21;;;;;;;4.12;3.00;;;;;;;22.21;58.04;101653.84;144992;629;6002;-75
2021/05/23 08:12:48;;;;;;;4.22;2.72;;;;;;;22.24;57.61;101646.75;144992;601;6002;-76
2021/05/23 08:15:15;;;;;;;3.62;2.50;;;;;;;22.24;56.41;101637.97;144992;578;6002;-74
2021/05/23 08:17:44;;;;;;;4.60;2.85;;;;;;;22.13;56.90;101658.25;144992;645;6003;-74
2021/05/23 08:20:13;;;;;;;4.93;2.60;;;;;;;22.20;56.93;101654.72;144992;586;6002;-74
2021/05/23 08:22:39;;;;;;;6.43;2.45;;;;;;;22.26;56.53;101660.84;144992;566;6002;-75
2021/05/23 08:25:07;;;;;;;6.35;2.40;;;;;;;22.19;56.80;101660.87;144992;583;6002;-75
2021/05/23 08:27:36;;;;;;;3.53;2.15;;;;;;;22.36;55.80;101660.84;144992;564;6002;-74
2021/05/23 08:30:04;;;;;;;5.30;2.25;;;;;;;22.16;56.70;101666.16;144992;618;6002;-74
2021/05/23 08:32:31;;;;;;;6.40;2.10;;;;;;;22.23;55.76;101665.28;144992;655;6002;-74
2021/05/23 08:34:57;;;;;;;4.82;2.05;;;;;;;21.96;56.45;101664.47;144992;598;6002;-74
2021/05/23 08:37:24;;;;;;;4.68;2.00;;;;;;;22.03;56.25;101666.22;144992;569;6002;-74
2021/05/23 08:39:50;;;;;;;4.28;2.42;;;;;;;21.97;58.20;101662.69;144992;623;6002;-75
2021/05/23 08:42:16;;;;;;;4.85;2.15;;;;;;;22.18;55.63;101670.56;144992;569;6002;-74
2021/05/23 08:44:43;;;;;;;5.35;1.90;;;;;;;22.35;54.33;101654.69;144992;590;6002;-74
2021/05/23 08:47:11;;;;;;;3.75;2.05;;;;;;;22.18;54.44;101660.00;144992;601;6002;-74
2021/05/23 08:49:37;;;;;;;7.62;1.98;;;;;;;22.27;52.78;101652.03;144992;580;6002;-74
2021/05/23 08:52:04;;;;;;;3.58;1.92;;;;;;;22.21;51.16;101649.41;144992;667;6002;-74
2021/05/23 08:54:31;;;;;;;6.12;2.20;;;;;;;22.41;52.09;101643.19;144992;599;6002;-74
2021/05/23 08:56:57;;;;;;;6.75;1.95;;;;;;;22.61;49.88;101654.56;144992;627;6002;-74
2021/05/23 08:59:24;;;;;;;6.90;1.98;;;;;;;22.79;49.42;101650.91;144992;642;6002;-74
2021/05/23 09:01:50;;;;;;;7.47;2.10;;;;;;;23.01;50.38;101650.78;144992;565;6002;-74
2021/05/23 09:04:19;;;;;;;5.78;2.20;;;;;;;23.19;46.78;101649.78;144991;589;6002;-75
2021/05/23 09:06:46;;;;;;;7.97;1.80;;;;;;;23.32;47.76;101648.81;144992;570;6002;-75
2021/05/23 09:09:15;;;;;;;6.35;2.30;;;;;;;23.40;47.03;101643.44;144992;571;6002;-73
2021/05/23 09:12:04;;;;;;;7.45;1.90;;;;;;;23.42;44.90;101648.75;144992;583;6002;-75
2021/05/23 09:14:36;;;;;;;2.83;1.90;;;;;;;23.49;41.95;101640.69;144992;644;6002;-74
2021/05/23 09:17:04;;;;;;;3.45;1.73;;;;;;;23.47;42.69;101644.28;144992;599;6002;-75
2021/05/23 09:19:45;;;;;;;4.10;1.70;;;;;;;23.44;41.82;101645.16;144992;597;6002;-76
2021/05/23 09:22:14;;;;;;;5.85;2.42;;;;;;;23.49;43.57;101647.78;144992;569;6002;-75
2021/05/23 09:25:07;;;;;;;7.78;1.90;;;;;;;23.32;44.59;101640.88;144992;757;6003;-75
2021/05/23 09:27:34;;;;;;;2.80;1.67;;;;;;;23.34;44.06;101639.06;144992;588;6004;-74
2021/05/23 09:30:08;;;;;;;3.87;2.47;;;;;;;23.13;44.13;101650.72;144992;586;6004;-76
2021/05/23 09:32:41;;;;;;;3.20;1.98;;;;;;;23.09;44.23;101635.75;144992;566;6004;-74
2021/05/23 09:35:09;;;;;;;5.47;2.67;;;;;;;23.27;44.87;101642.66;144992;587;6004;-73
2021/05/23 09:37:37;;;;;;;3.35;1.98;;;;;;;23.30;44.70;101634.69;144992;584;6004;-75
2021/05/23 09:40:16;;;;;;;6.30;1.80;;;;;;;23.30;43.93;101636.47;144992;641;6004;-75
2021/05/23 09:42:47;;;;;;;3.78;1.85;;;;;;;23.34;42.05;101643.50;144992;561;6004;-74
2021/05/23 09:45:17;;;;;;;3.25;1.67;;;;;;;23.36;43.11;101636.41;144992;572;6004;-74
2021/05/23 09:47:57;;;;;;;3.03;1.70;;;;;;;23.43;41.70;101637.22;144992;589;6004;-75
2021/05/23 09:50:53;;;;;;;2.60;1.45;;;;;;;23.45;40.66;101631.03;144992;583;6004;-74
2021/05/23 09:53:28;;;;;;;5.37;1.83;;;;;;;23.55;41.65;101631.81;144992;733;6002;-73
2021/05/23 09:56:06;;;;;;;3.67;1.95;;;;;;;23.62;41.59;101628.19;144992;569;6002;-74
2021/05/23 09:58:36;;;;;;;3.83;2.30;;;;;;;23.54;41.82;101628.31;144992;583;6002;-73
2021/05/23 10:01:07;;;;;;;3.58;2.20;;;;;;;23.62;41.66;101624.69;144992;588;6002;-74
2021/05/23 10:03:47;;;;;;;3.42;2.12;;;;;;;23.73;40.88;101630.75;144992;564;6002;-71
2021/05/23 10:06:46;;;;;;;7.47;1.77;;;;;;;23.88;40.81;101630.63;144992;585;6002;-75
2021/05/23 10:09:13;;;;;;;3.58;1.55;;;;;;;24.00;41.07;101626.06;144992;621;6002;-75
2021/05/23 10:11:48;;;;;;;2.33;1.70;;;;;;;24.01;39.16;101619.87;144992;569;6002;-75
2021/05/23 10:14:22;;;;;;;3.28;1.80;;;;;;;24.12;40.22;101619.75;144992;563;6002;-75
2021/05/23 10:16:53;;;;;;;4.32;1.50;;;;;;;24.25;39.00;101619.56;144992;668;6003;-75
2021/05/23 10:19:23;;;;;;;3.80;1.73;;;;;;;24.13;39.90;101617.06;144992;602;6002;-76
2021/05/23 10:21:51;;;;;;;3.85;1.95;;;;;;;24.04;39.92;101609.25;144992;581;6002;-74
2021/05/23 10:24:43;;;;;;;4.22;2.12;;;;;;;23.99;40.22;101616.34;144992;629;6002;-75
2021/05/23 10:27:13;;;;;;;4.97;2.22;;;;;;;23.96;40.38;101625.25;144992;600;6002;-74
2021/05/23 10:29:44;;;;;;;4.78;2.50;;;;;;;23.82;42.71;101614.75;144992;577;6002;-74
2021/05/23 10:32:14;;;;;;;5.47;2.22;;;;;;;24.05;42.13;101614.53;144992;612;6002;-74
2021/05/23 10:34:46;;;;;;;10.05;2.20;;;;;;;24.01;43.12;101622.53;144992;609;6002;-76
2021/05/23 10:37:27;;;;;;;5.28;1.98;;;;;;;23.90;43.78;101623.53;144992;641;6002;-75
2021/05/23 10:39:54;;;;;;;3.45;2.20;;;;;;;23.86;43.93;101613.88;144992;589;6002;-75
2021/05/23 10:42:24;;;;;;;4.68;2.10;;;;;;;23.92;44.32;101617.34;144992;686;6002;-73
2021/05/23 10:44:54;;;;;;;4.10;2.10;;;;;;;24.01;44.78;101609.28;144992;572;6002;-75
2021/05/23 10:47:28;;;;;;;5.78;2.10;;;;;;;24.00;46.04;101607.50;144992;612;6002;-74
2021/05/23 10:50:14;;;;;;;4.82;1.98;;;;;;;24.16;45.17;101602.87;144992;659;6002;-75
2021/05/23 10:52:41;;;;;;;5.93;2.28;;;;;;;24.23;45.10;101601.94;144992;583;6004;-75
2021/05/23 10:55:13;;;;;;;6.37;2.30;;;;;;;24.29;44.99;101599.16;144992;572;6004;-75
2021/05/23 10:58:08;;;;;;;5.30;2.20;;;;;;;24.16;44.92;101593.16;144992;603;6004;-75
2021/05/23 11:00:39;;;;;;;2.67;1.87;;;;;;;24.41;44.41;101598.12;144992;686;6002;-75
2021/05/23 11:03:18;;;;;;;3.80;1.70;;;;;;;24.49;43.51;101598.03;144992;566;6011;-74
2021/05/23 11:05:45;;;;;;;3.25;1.42;;;;;;;24.22;42.39;101593.06;144992;577;6002;-75
2021/05/23 11:08:14;;;;;;;2.72;1.80;;;;;;;24.37;44.13;101585.81;144992;633;6003;-74
2021/05/23 11:10:42;;;;;;;4.68;2.20;;;;;;;24.14;49.76;101586.13;144991;609;6002;-75
2021/05/23 11:13:11;;;;;;;6.43;2.22;;;;;;;24.32;47.20;101582.34;144992;635;6002;-75
2021/05/23 11:15:43;;;;;;;2.90;1.85;;;;;;;24.26;47.69;101578.00;144992;628;6002;-74
2021/05/23 11:18:16;;;;;;;3.92;2.00;;;;;;;24.27;48.06;101569.13;144992;569;6002;-74
2021/05/23 11:21:22;;;;;;;5.43;2.37;;;;;;;24.43;48.09;101565.37;144992;582;6002;-74
2021/05/23 11:23:54;;;;;;;5.82;3.45;;;;;;;24.46;47.95;101569.75;144992;586;6002;-75
2021/05/23 11:26:25;;;;;;;4.75;2.30;;;;;;;24.58;47.80;101564.31;144992;583;6002;-74
2021/05/23 11:28:58;;;;;;;5.68;2.03;;;;;;;24.65;47.27;101564.22;144992;571;6002;-74
2021/05/23 11:31:33;;;;;;;3.97;2.75;;;;;;;24.64;46.94;101565.97;144992;574;6002;-74
2021/05/23 11:34:01;;;;;;;8.18;2.40;;;;;;;24.57;46.59;101554.56;144992;668;6002;-74
2021/05/23 11:36:33;;;;;;;2.92;1.80;;;;;;;24.66;46.24;101552.69;144992;596;6002;-74
2021/05/23 11:39:43;;;;;;;3.33;2.15;;;;;;;24.57;46.38;101553.72;144992;569;6002;-79
2021/05/23 11:42:10;;;;;;;3.28;2.10;;;;;;;24.60;47.73;101548.34;144992;563;6004;-74
2021/05/23 11:44:39;;;;;;;3.72;2.10;;;;;;;24.57;46.54;101548.41;144992;585;6004;-75